sensor_id;sensor_type;location;lat;lon;timestamp;temperature;humidity
22112;DHT22;11222;50.872;4.312;2023-05-14T00:00:27;13.40;99.90
22112;DHT22;11222;50.872;4.312;2023-05-14T00:02:53;13.40;99.90
22112;DHT22;11222;50.872;4.312;2023-05-14T00:05:18;13.40;99.90
22112;DHT22;11222;50.872;4.312;2023-05-14T00:07:44;13.40;99.90
22112;DHT22;11222;50.872;4.312;2023-05-14T00:10:10;13.40;99.90
22112;DHT22;11222;50.872;4.312;2023-05-14T00:12:35;13.50;99.90
22112;DHT22;11222;50.872;4.312;2023-05-14T00:15:01;13.50;99.90
22112;DHT22;11222;50.872;4.312;2023-05-14T00:17:27;13.60;99.90
22112;DHT22;11222;50.872;4.312;2023-05-14T00:19:53;13.70;99.90
22112;DHT22;11222;50.872;4.312;2023-05-14T00:22:18;13.70;99.90
22112;DHT22;11222;50.872;4.312;2023-05-14T00:24:44;13.70;99.90
22112;DHT22;11222;50.872;4.312;2023-05-14T00:27:09;13.70;99.90
22112;DHT22;11222;50.872;4.312;2023-05-14T00:29:35;13.70;99.90
22112;DHT22;11222;50.872;4.312;2023-05-14T00:32:03;13.70;99.90
22112;DHT22;11222;50.872;4.312;2023-05-14T00:34:28;13.70;99.90
22112;DHT22;11222;50.872;4.312;2023-05-14T00:36:54;13.60;99.90
22112;DHT22;11222;50.872;4.312;2023-05-14T00:39:20;13.50;99.90
22112;DHT22;11222;50.872;4.312;2023-05-14T00:41:45;13.40;99.90
22112;DHT22;11222;50.872;4.312;2023-05-14T00:44:11;13.40;99.90
22112;DHT22;11222;50.872;4.312;2023-05-14T00:46:37;13.40;99.90
22112;DHT22;11222;50.872;4.312;2023-05-14T00:49:02;13.40;99.90
22112;DHT22;11222;50.872;4.312;2023-05-14T00:51:28;13.40;99.90
22112;DHT22;11222;50.872;4.312;2023-05-14T00:53:54;13.30;99.90
22112;DHT22;11222;50.872;4.312;2023-05-14T00:56:20;13.30;99.90
22112;DHT22;11222;50.872;4.312;2023-05-14T00:58:45;13.40;99.90
22112;DHT22;11222;50.872;4.312;2023-05-14T01:01:11;13.30;99.90
22112;DHT22;11222;50.872;4.312;2023-05-14T01:03:39;13.40;99.90
22112;DHT22;11222;50.872;4.312;2023-05-14T01:06:20;13.50;99.90
22112;DHT22;11222;50.872;4.312;2023-05-14T01:14:28;13.50;99.90
22112;DHT22;11222;50.872;4.312;2023-05-14T01:16:57;13.60;99.90
22112;DHT22;11222;50.872;4.312;2023-05-14T01:19:34;13.50;99.90
22112;DHT22;11222;50.872;4.312;2023-05-14T01:22:01;13.50;99.90
22112;DHT22;11222;50.872;4.312;2023-05-14T01:24:27;13.50;99.90
22112;DHT22;11222;50.872;4.312;2023-05-14T01:26:57;13.60;99.90
22112;DHT22;11222;50.872;4.312;2023-05-14T01:29:27;13.60;99.90
22112;DHT22;11222;50.872;4.312;2023-05-14T01:31:54;13.50;99.90
22112;DHT22;11222;50.872;4.312;2023-05-14T01:34:23;13.40;99.90
22112;DHT22;11222;50.872;4.312;2023-05-14T01:36:50;13.40;99.90
22112;DHT22;11222;50.872;4.312;2023-05-14T01:39:16;13.40;99.90
22112;DHT22;11222;50.872;4.312;2023-05-14T01:41:43;13.40;99.90
22112;DHT22;11222;50.872;4.312;2023-05-14T01:44:11;13.40;99.90
22112;DHT22;11222;50.872;4.312;2023-05-14T01:46:37;13.40;99.90
22112;DHT22;11222;50.872;4.312;2023-05-14T01:49:03;13.40;99.90
22112;DHT22;11222;50.872;4.312;2023-05-14T01:51:28;13.40;99.90
22112;DHT22;11222;50.872;4.312;2023-05-14T01:53:54;13.40;99.90
22112;DHT22;11222;50.872;4.312;2023-05-14T01:56:21;13.40;99.90
22112;DHT22;11222;50.872;4.312;2023-05-14T01:58:48;13.40;99.90
22112;DHT22;11222;50.872;4.312;2023-05-14T02:01:13;13.40;99.90
22112;DHT22;11222;50.872;4.312;2023-05-14T02:03:39;13.30;99.90
22112;DHT22;11222;50.872;4.312;2023-05-14T02:06:04;13.20;99.90
22112;DHT22;11222;50.872;4.312;2023-05-14T02:08:30;13.30;99.90
22112;DHT22;11222;50.872;4.312;2023-05-14T02:10:56;13.30;99.90
22112;DHT22;11222;50.872;4.312;2023-05-14T02:13:21;13.40;99.90
22112;DHT22;11222;50.872;4.312;2023-05-14T02:15:48;13.40;99.90
22112;DHT22;11222;50.872;4.312;2023-05-14T02:18:14;13.40;99.90
22112;DHT22;11222;50.872;4.312;2023-05-14T02:20:39;13.20;99.90
22112;DHT22;11222;50.872;4.312;2023-05-14T02:23:05;13.20;99.90
22112;DHT22;11222;50.872;4.312;2023-05-14T02:25:31;13.20;99.90
22112;DHT22;11222;50.872;4.312;2023-05-14T02:27:56;13.30;99.90
22112;DHT22;11222;50.872;4.312;2023-05-14T02:30:22;13.40;99.90
22112;DHT22;11222;50.872;4.312;2023-05-14T02:32:48;13.40;99.90
22112;DHT22;11222;50.872;4.312;2023-05-14T02:35:13;13.30;99.90
22112;DHT22;11222;50.872;4.312;2023-05-14T02:37:39;13.30;99.90
22112;DHT22;11222;50.872;4.312;2023-05-14T02:40:05;13.30;99.90
22112;DHT22;11222;50.872;4.312;2023-05-14T02:42:31;13.30;99.90
22112;DHT22;11222;50.872;4.312;2023-05-14T02:44:57;13.30;99.90
22112;DHT22;11222;50.872;4.312;2023-05-14T02:47:23;13.30;99.90
22112;DHT22;11222;50.872;4.312;2023-05-14T02:49:48;13.30;99.90
22112;DHT22;11222;50.872;4.312;2023-05-14T02:52:14;13.40;99.90
22112;DHT22;11222;50.872;4.312;2023-05-14T02:54:42;13.30;99.90
22112;DHT22;11222;50.872;4.312;2023-05-14T02:57:08;13.30;99.90
22112;DHT22;11222;50.872;4.312;2023-05-14T02:59:33;13.30;99.90
22112;DHT22;11222;50.872;4.312;2023-05-14T03:01:59;13.40;99.90
22112;DHT22;11222;50.872;4.312;2023-05-14T03:04:24;13.50;99.90
22112;DHT22;11222;50.872;4.312;2023-05-14T03:06:50;13.50;99.90
22112;DHT22;11222;50.872;4.312;2023-05-14T03:09:16;13.50;99.90
22112;DHT22;11222;50.872;4.312;2023-05-14T03:11:41;13.50;99.90
22112;DHT22;11222;50.872;4.312;2023-05-14T03:14:07;13.50;99.90
22112;DHT22;11222;50.872;4.312;2023-05-14T03:16:33;13.50;99.90
22112;DHT22;11222;50.872;4.312;2023-05-14T03:18:58;13.50;99.90
22112;DHT22;11222;50.872;4.312;2023-05-14T03:21:24;13.60;99.90
22112;DHT22;11222;50.872;4.312;2023-05-14T03:23:51;13.50;99.90
22112;DHT22;11222;50.872;4.312;2023-05-14T03:26:17;13.50;99.90
22112;DHT22;11222;50.872;4.312;2023-05-14T03:28:43;13.50;99.90
22112;DHT22;11222;50.872;4.312;2023-05-14T03:31:09;13.50;99.90
22112;DHT22;11222;50.872;4.312;2023-05-14T03:33:34;13.50;99.90
22112;DHT22;11222;50.872;4.312;2023-05-14T03:36:00;13.60;99.90
22112;DHT22;11222;50.872;4.312;2023-05-14T03:38:26;13.50;99.90
22112;DHT22;11222;50.872;4.312;2023-05-14T03:40:52;13.50;99.90
22112;DHT22;11222;50.872;4.312;2023-05-14T03:43:17;13.40;99.90
22112;DHT22;11222;50.872;4.312;2023-05-14T03:45:43;13.30;99.90
22112;DHT22;11222;50.872;4.312;2023-05-14T03:48:08;13.40;99.90
22112;DHT22;11222;50.872;4.312;2023-05-14T03:50:34;13.40;99.90
22112;DHT22;11222;50.872;4.312;2023-05-14T03:53:00;13.40;99.90
22112;DHT22;11222;50.872;4.312;2023-05-14T03:55:25;13.50;99.90
22112;DHT22;11222;50.872;4.312;2023-05-14T03:57:51;13.50;99.90
22112;DHT22;11222;50.872;4.312;2023-05-14T04:00:17;13.50;99.90
22112;DHT22;11222;50.872;4.312;2023-05-14T04:02:42;13.60;99.90
22112;DHT22;11222;50.872;4.312;2023-05-14T04:05:08;13.60;99.90
22112;DHT22;11222;50.872;4.312;2023-05-14T04:07:34;13.50;99.90
22112;DHT22;11222;50.872;4.312;2023-05-14T04:10:04;13.50;99.90
22112;DHT22;11222;50.872;4.312;2023-05-14T04:12:30;13.50;99.90
22112;DHT22;11222;50.872;4.312;2023-05-14T04:14:56;13.50;99.90
22112;DHT22;11222;50.872;4.312;2023-05-14T04:17:22;13.50;99.90
22112;DHT22;11222;50.872;4.312;2023-05-14T04:19:48;13.50;99.90
22112;DHT22;11222;50.872;4.312;2023-05-14T04:22:13;13.60;99.90
22112;DHT22;11222;50.872;4.312;2023-05-14T04:24:39;13.50;99.90
22112;DHT22;11222;50.872;4.312;2023-05-14T04:27:05;13.50;99.90
22112;DHT22;11222;50.872;4.312;2023-05-14T04:29:31;13.50;99.90
22112;DHT22;11222;50.872;4.312;2023-05-14T04:31:57;13.30;99.90
22112;DHT22;11222;50.872;4.312;2023-05-14T04:34:22;13.30;99.90
22112;DHT22;11222;50.872;4.312;2023-05-14T04:36:48;13.30;99.90
22112;DHT22;11222;50.872;4.312;2023-05-14T04:39:14;13.40;99.90
22112;DHT22;11222;50.872;4.312;2023-05-14T04:41:39;13.40;99.90
22112;DHT22;11222;50.872;4.312;2023-05-14T04:44:05;13.40;99.90
22112;DHT22;11222;50.872;4.312;2023-05-14T04:46:31;13.40;99.90
22112;DHT22;11222;50.872;4.312;2023-05-14T04:48:57;13.50;99.90
22112;DHT22;11222;50.872;4.312;2023-05-14T04:51:22;13.40;99.90
22112;DHT22;11222;50.872;4.312;2023-05-14T04:53:48;13.30;99.90
22112;DHT22;11222;50.872;4.312;2023-05-14T04:56:14;13.30;99.90
22112;DHT22;11222;50.872;4.312;2023-05-14T04:58:39;13.30;99.90
22112;DHT22;11222;50.872;4.312;2023-05-14T05:01:05;13.30;99.90
22112;DHT22;11222;50.872;4.312;2023-05-14T05:03:31;13.30;99.90
22112;DHT22;11222;50.872;4.312;2023-05-14T05:05:57;13.40;99.90
22112;DHT22;11222;50.872;4.312;2023-05-14T05:08:23;13.40;99.90
22112;DHT22;11222;50.872;4.312;2023-05-14T05:10:48;13.40;99.90
22112;DHT22;11222;50.872;4.312;2023-05-14T05:13:14;13.50;99.90
22112;DHT22;11222;50.872;4.312;2023-05-14T05:15:42;13.50;99.90
22112;DHT22;11222;50.872;4.312;2023-05-14T05:18:07;13.50;99.90
22112;DHT22;11222;50.872;4.312;2023-05-14T05:20:33;13.30;99.90
22112;DHT22;11222;50.872;4.312;2023-05-14T05:22:59;13.30;99.90
22112;DHT22;11222;50.872;4.312;2023-05-14T05:25:25;13.30;99.90
22112;DHT22;11222;50.872;4.312;2023-05-14T05:27:51;13.40;99.90
22112;DHT22;11222;50.872;4.312;2023-05-14T05:30:17;13.30;99.90
22112;DHT22;11222;50.872;4.312;2023-05-14T05:32:43;13.40;99.90
22112;DHT22;11222;50.872;4.312;2023-05-14T05:35:08;13.40;99.90
22112;DHT22;11222;50.872;4.312;2023-05-14T05:37:34;13.50;99.90
22112;DHT22;11222;50.872;4.312;2023-05-14T05:40:00;13.50;99.90
22112;DHT22;11222;50.872;4.312;2023-05-14T05:42:25;13.50;99.90
22112;DHT22;11222;50.872;4.312;2023-05-14T05:44:51;13.60;99.90
22112;DHT22;11222;50.872;4.312;2023-05-14T05:47:17;13.50;99.90
22112;DHT22;11222;50.872;4.312;2023-05-14T05:49:42;13.60;99.90
22112;DHT22;11222;50.872;4.312;2023-05-14T05:52:08;13.60;99.90
22112;DHT22;11222;50.872;4.312;2023-05-14T05:54:34;13.60;99.90
22112;DHT22;11222;50.872;4.312;2023-05-14T05:57:00;13.60;99.90
22112;DHT22;11222;50.872;4.312;2023-05-14T05:59:25;13.70;99.90
22112;DHT22;11222;50.872;4.312;2023-05-14T06:01:51;13.70;99.90
22112;DHT22;11222;50.872;4.312;2023-05-14T06:04:17;13.70;99.90
22112;DHT22;11222;50.872;4.312;2023-05-14T06:06:43;13.70;99.90
22112;DHT22;11222;50.872;4.312;2023-05-14T06:09:08;13.70;99.90
22112;DHT22;11222;50.872;4.312;2023-05-14T06:11:34;13.60;99.90
22112;DHT22;11222;50.872;4.312;2023-05-14T06:14:00;13.60;99.90
22112;DHT22;11222;50.872;4.312;2023-05-14T06:16:26;13.60;99.90
22112;DHT22;11222;50.872;4.312;2023-05-14T06:18:53;13.50;99.90
22112;DHT22;11222;50.872;4.312;2023-05-14T06:21:19;13.60;99.90
22112;DHT22;11222;50.872;4.312;2023-05-14T06:23:45;13.60;99.90
22112;DHT22;11222;50.872;4.312;2023-05-14T06:26:11;13.80;99.90
22112;DHT22;11222;50.872;4.312;2023-05-14T06:28:37;13.90;99.90
22112;DHT22;11222;50.872;4.312;2023-05-14T06:31:02;14.00;99.90
22112;DHT22;11222;50.872;4.312;2023-05-14T06:33:28;13.90;99.90
22112;DHT22;11222;50.872;4.312;2023-05-14T06:35:57;13.80;99.90
22112;DHT22;11222;50.872;4.312;2023-05-14T06:38:22;13.80;99.90
22112;DHT22;11222;50.872;4.312;2023-05-14T06:40:48;13.80;99.90
22112;DHT22;11222;50.872;4.312;2023-05-14T06:43:14;13.80;99.90
22112;DHT22;11222;50.872;4.312;2023-05-14T06:45:39;13.70;99.90
22112;DHT22;11222;50.872;4.312;2023-05-14T06:48:05;13.70;99.90
22112;DHT22;11222;50.872;4.312;2023-05-14T06:50:31;13.80;99.90
22112;DHT22;11222;50.872;4.312;2023-05-14T06:52:56;13.80;99.90
22112;DHT22;11222;50.872;4.312;2023-05-14T06:55:22;13.80;99.90
22112;DHT22;11222;50.872;4.312;2023-05-14T06:57:48;13.90;99.90
22112;DHT22;11222;50.872;4.312;2023-05-14T07:00:14;13.90;99.90
22112;DHT22;11222;50.872;4.312;2023-05-14T07:02:40;13.90;99.90
22112;DHT22;11222;50.872;4.312;2023-05-14T07:05:05;13.90;99.90
22112;DHT22;11222;50.872;4.312;2023-05-14T07:07:32;14.00;99.90
22112;DHT22;11222;50.872;4.312;2023-05-14T07:09:58;14.10;99.90
22112;DHT22;11222;50.872;4.312;2023-05-14T07:12:24;13.80;99.90
22112;DHT22;11222;50.872;4.312;2023-05-14T07:14:50;13.90;99.90
22112;DHT22;11222;50.872;4.312;2023-05-14T07:17:16;13.80;99.90
22112;DHT22;11222;50.872;4.312;2023-05-14T07:19:42;13.80;99.90
22112;DHT22;11222;50.872;4.312;2023-05-14T07:22:07;13.90;99.90
22112;DHT22;11222;50.872;4.312;2023-05-14T07:24:33;13.90;99.90
22112;DHT22;11222;50.872;4.312;2023-05-14T07:26:59;13.90;99.90
22112;DHT22;11222;50.872;4.312;2023-05-14T07:29:26;13.90;99.90
22112;DHT22;11222;50.872;4.312;2023-05-14T07:31:51;13.70;99.90
22112;DHT22;11222;50.872;4.312;2023-05-14T07:34:17;13.70;99.90
22112;DHT22;11222;50.872;4.312;2023-05-14T07:36:43;13.90;99.90
22112;DHT22;11222;50.872;4.312;2023-05-14T07:39:09;14.00;99.90
22112;DHT22;11222;50.872;4.312;2023-05-14T07:41:35;14.20;99.90
22112;DHT22;11222;50.872;4.312;2023-05-14T07:44:01;14.40;99.90
22112;DHT22;11222;50.872;4.312;2023-05-14T07:46:26;14.30;99.90
22112;DHT22;11222;50.872;4.312;2023-05-14T07:48:52;14.40;99.90
22112;DHT22;11222;50.872;4.312;2023-05-14T07:51:18;14.40;99.90
22112;DHT22;11222;50.872;4.312;2023-05-14T07:53:43;14.20;99.90
22112;DHT22;11222;50.872;4.312;2023-05-14T07:56:09;14.20;99.90
22112;DHT22;11222;50.872;4.312;2023-05-14T07:58:36;14.20;99.90
22112;DHT22;11222;50.872;4.312;2023-05-14T08:01:02;14.10;99.90
22112;DHT22;11222;50.872;4.312;2023-05-14T08:03:31;14.10;99.90
22112;DHT22;11222;50.872;4.312;2023-05-14T08:05:57;14.20;99.90
22112;DHT22;11222;50.872;4.312;2023-05-14T08:08:22;14.20;99.90
22112;DHT22;11222;50.872;4.312;2023-05-14T08:10:48;14.20;99.90
22112;DHT22;11222;50.872;4.312;2023-05-14T08:13:15;14.30;99.90
22112;DHT22;11222;50.872;4.312;2023-05-14T08:15:40;14.20;99.90
22112;DHT22;11222;50.872;4.312;2023-05-14T08:18:06;14.20;99.90
22112;DHT22;11222;50.872;4.312;2023-05-14T08:20:32;14.40;99.90
22112;DHT22;11222;50.872;4.312;2023-05-14T08:22:57;14.30;99.90
22112;DHT22;11222;50.872;4.312;2023-05-14T08:25:23;14.30;99.90
22112;DHT22;11222;50.872;4.312;2023-05-14T08:27:49;14.30;99.90
22112;DHT22;11222;50.872;4.312;2023-05-14T08:30:15;14.50;99.90
22112;DHT22;11222;50.872;4.312;2023-05-14T08:32:42;14.70;99.90
22112;DHT22;11222;50.872;4.312;2023-05-14T08:35:08;15.10;99.90
22112;DHT22;11222;50.872;4.312;2023-05-14T08:37:33;15.10;99.90
22112;DHT22;11222;50.872;4.312;2023-05-14T08:39:59;15.20;99.90
22112;DHT22;11222;50.872;4.312;2023-05-14T08:42:25;15.10;99.90
22112;DHT22;11222;50.872;4.312;2023-05-14T08:44:56;15.10;99.90
22112;DHT22;11222;50.872;4.312;2023-05-14T08:47:24;15.00;99.90
22112;DHT22;11222;50.872;4.312;2023-05-14T08:50:02;15.20;99.90
22112;DHT22;11222;50.872;4.312;2023-05-14T08:52:29;15.40;99.90
22112;DHT22;11222;50.872;4.312;2023-05-14T08:54:57;15.50;99.90
22112;DHT22;11222;50.872;4.312;2023-05-14T08:57:25;15.80;99.90
22112;DHT22;11222;50.872;4.312;2023-05-14T08:59:52;16.00;99.90
22112;DHT22;11222;50.872;4.312;2023-05-14T09:02:21;16.30;99.90
22112;DHT22;11222;50.872;4.312;2023-05-14T09:04:59;15.90;99.90
22112;DHT22;11222;50.872;4.312;2023-05-14T09:07:25;15.90;99.90
22112;DHT22;11222;50.872;4.312;2023-05-14T09:09:51;16.10;99.90
22112;DHT22;11222;50.872;4.312;2023-05-14T09:12:17;16.30;99.90
22112;DHT22;11222;50.872;4.312;2023-05-14T09:14:44;16.20;99.90
22112;DHT22;11222;50.872;4.312;2023-05-14T09:17:10;16.40;99.90
22112;DHT22;11222;50.872;4.312;2023-05-14T09:19:39;17.00;99.90
22112;DHT22;11222;50.872;4.312;2023-05-14T09:22:08;17.20;99.90
22112;DHT22;11222;50.872;4.312;2023-05-14T09:24:34;17.60;99.90
22112;DHT22;11222;50.872;4.312;2023-05-14T09:27:01;18.30;99.90
22112;DHT22;11222;50.872;4.312;2023-05-14T09:29:28;18.50;99.90
22112;DHT22;11222;50.872;4.312;2023-05-14T09:31:55;18.70;99.90
22112;DHT22;11222;50.872;4.312;2023-05-14T09:34:28;18.70;99.90
22112;DHT22;11222;50.872;4.312;2023-05-14T09:37:04;18.70;99.90
22112;DHT22;11222;50.872;4.312;2023-05-14T09:39:31;18.60;99.90
22112;DHT22;11222;50.872;4.312;2023-05-14T09:41:57;18.20;99.90
22112;DHT22;11222;50.872;4.312;2023-05-14T09:44:23;18.20;99.90
22112;DHT22;11222;50.872;4.312;2023-05-14T09:46:49;18.00;99.90
22112;DHT22;11222;50.872;4.312;2023-05-14T09:49:15;18.20;99.90
22112;DHT22;11222;50.872;4.312;2023-05-14T09:51:41;18.10;99.90
22112;DHT22;11222;50.872;4.312;2023-05-14T09:54:07;17.60;99.90
22112;DHT22;11222;50.872;4.312;2023-05-14T09:56:35;17.80;99.90
22112;DHT22;11222;50.872;4.312;2023-05-14T09:59:02;17.40;99.90
22112;DHT22;11222;50.872;4.312;2023-05-14T10:01:29;17.20;99.90
22112;DHT22;11222;50.872;4.312;2023-05-14T10:03:55;17.20;99.90
22112;DHT22;11222;50.872;4.312;2023-05-14T10:06:24;18.40;99.90
22112;DHT22;11222;50.872;4.312;2023-05-14T10:08:57;19.00;99.90
22112;DHT22;11222;50.872;4.312;2023-05-14T10:11:29;18.40;99.90
22112;DHT22;11222;50.872;4.312;2023-05-14T10:16:42;20.00;99.90
22112;DHT22;11222;50.872;4.312;2023-05-14T10:19:11;20.00;99.90
22112;DHT22;11222;50.872;4.312;2023-05-14T10:21:40;21.20;99.90
22112;DHT22;11222;50.872;4.312;2023-05-14T10:24:10;22.50;99.90
22112;DHT22;11222;50.872;4.312;2023-05-14T10:26:38;23.60;99.90
22112;DHT22;11222;50.872;4.312;2023-05-14T10:29:05;23.00;99.90
22112;DHT22;11222;50.872;4.312;2023-05-14T10:31:53;21.80;99.90
22112;DHT22;11222;50.872;4.312;2023-05-14T10:34:41;21.70;99.90
22112;DHT22;11222;50.872;4.312;2023-05-14T10:37:15;21.50;99.90
22112;DHT22;11222;50.872;4.312;2023-05-14T10:40:03;22.70;99.90
22112;DHT22;11222;50.872;4.312;2023-05-14T10:42:34;23.90;99.90
22112;DHT22;11222;50.872;4.312;2023-05-14T10:45:13;24.50;99.90
22112;DHT22;11222;50.872;4.312;2023-05-14T10:47:41;25.00;99.90
22112;DHT22;11222;50.872;4.312;2023-05-14T10:50:11;24.50;99.90
22112;DHT22;11222;50.872;4.312;2023-05-14T10:52:39;23.90;99.90
22112;DHT22;11222;50.872;4.312;2023-05-14T10:55:05;24.20;99.90
22112;DHT22;11222;50.872;4.312;2023-05-14T10:57:35;24.00;99.90
22112;DHT22;11222;50.872;4.312;2023-05-14T11:00:01;24.90;99.90
22112;DHT22;11222;50.872;4.312;2023-05-14T11:03:02;25.30;99.90
22112;DHT22;11222;50.872;4.312;2023-05-14T11:05:21;26.10;99.90
22112;DHT22;11222;50.872;4.312;2023-05-14T11:07:49;25.70;99.90
22112;DHT22;11222;50.872;4.312;2023-05-14T11:10:16;24.70;99.90
22112;DHT22;11222;50.872;4.312;2023-05-14T11:12:44;23.70;99.90
22112;DHT22;11222;50.872;4.312;2023-05-14T11:15:12;25.30;99.90
22112;DHT22;11222;50.872;4.312;2023-05-14T11:17:41;24.90;99.90
22112;DHT22;11222;50.872;4.312;2023-05-14T11:20:08;25.40;99.90
22112;DHT22;11222;50.872;4.312;2023-05-14T11:22:34;24.50;99.90
22112;DHT22;11222;50.872;4.312;2023-05-14T11:25:00;24.50;99.90
22112;DHT22;11222;50.872;4.312;2023-05-14T11:27:29;25.00;99.90
22112;DHT22;11222;50.872;4.312;2023-05-14T11:29:55;24.50;99.90
22112;DHT22;11222;50.872;4.312;2023-05-14T11:32:22;23.90;99.90
22112;DHT22;11222;50.872;4.312;2023-05-14T11:34:48;25.10;99.90
22112;DHT22;11222;50.872;4.312;2023-05-14T11:37:15;25.90;99.90
22112;DHT22;11222;50.872;4.312;2023-05-14T11:39:54;26.40;99.90
22112;DHT22;11222;50.872;4.312;2023-05-14T11:42:20;26.80;99.90
22112;DHT22;11222;50.872;4.312;2023-05-14T11:44:48;27.20;99.90
22112;DHT22;11222;50.872;4.312;2023-05-14T11:47:17;27.00;99.90
22112;DHT22;11222;50.872;4.312;2023-05-14T11:49:43;26.20;99.90
22112;DHT22;11222;50.872;4.312;2023-05-14T11:52:10;26.10;99.90
22112;DHT22;11222;50.872;4.312;2023-05-14T11:54:37;26.40;99.90
22112;DHT22;11222;50.872;4.312;2023-05-14T11:57:11;26.10;99.90
22112;DHT22;11222;50.872;4.312;2023-05-14T11:59:43;26.10;99.90
22112;DHT22;11222;50.872;4.312;2023-05-14T12:02:16;25.30;99.90
22112;DHT22;11222;50.872;4.312;2023-05-14T12:04:43;24.40;99.90
22112;DHT22;11222;50.872;4.312;2023-05-14T12:07:09;23.20;99.90
22112;DHT22;11222;50.872;4.312;2023-05-14T12:09:37;22.60;99.90
22112;DHT22;11222;50.872;4.312;2023-05-14T12:12:08;22.10;99.90
22112;DHT22;11222;50.872;4.312;2023-05-14T12:14:37;21.90;99.90
22112;DHT22;11222;50.872;4.312;2023-05-14T12:19:41;21.90;99.90
22112;DHT22;11222;50.872;4.312;2023-05-14T12:22:09;21.80;99.90
22112;DHT22;11222;50.872;4.312;2023-05-14T12:24:35;21.70;99.90
22112;DHT22;11222;50.872;4.312;2023-05-14T12:27:01;21.50;99.90
22112;DHT22;11222;50.872;4.312;2023-05-14T12:29:27;21.30;99.90
22112;DHT22;11222;50.872;4.312;2023-05-14T12:31:56;21.10;99.90
22112;DHT22;11222;50.872;4.312;2023-05-14T12:34:23;21.10;99.90
22112;DHT22;11222;50.872;4.312;2023-05-14T12:36:50;20.70;99.90
22112;DHT22;11222;50.872;4.312;2023-05-14T12:39:16;20.40;99.90
22112;DHT22;11222;50.872;4.312;2023-05-14T12:41:42;20.40;99.90
22112;DHT22;11222;50.872;4.312;2023-05-14T12:44:08;20.50;99.90
22112;DHT22;11222;50.872;4.312;2023-05-14T12:46:34;20.70;99.90
22112;DHT22;11222;50.872;4.312;2023-05-14T12:49:00;20.90;99.90
22112;DHT22;11222;50.872;4.312;2023-05-14T12:51:25;20.90;99.90
22112;DHT22;11222;50.872;4.312;2023-05-14T12:53:51;21.00;99.90
22112;DHT22;11222;50.872;4.312;2023-05-14T12:56:18;21.00;99.90
22112;DHT22;11222;50.872;4.312;2023-05-14T12:58:44;20.90;99.90
22112;DHT22;11222;50.872;4.312;2023-05-14T13:01:12;20.80;99.90
22112;DHT22;11222;50.872;4.312;2023-05-14T13:03:38;20.60;99.90
22112;DHT22;11222;50.872;4.312;2023-05-14T13:06:05;20.60;99.90
22112;DHT22;11222;50.872;4.312;2023-05-14T13:08:31;20.60;99.90
22112;DHT22;11222;50.872;4.312;2023-05-14T13:10:57;20.30;99.90
22112;DHT22;11222;50.872;4.312;2023-05-14T13:13:22;20.30;99.90
22112;DHT22;11222;50.872;4.312;2023-05-14T13:15:48;20.50;99.90
22112;DHT22;11222;50.872;4.312;2023-05-14T13:18:16;20.50;99.90
22112;DHT22;11222;50.872;4.312;2023-05-14T13:20:42;20.60;99.90
22112;DHT22;11222;50.872;4.312;2023-05-14T13:23:08;20.90;99.90
22112;DHT22;11222;50.872;4.312;2023-05-14T13:25:34;21.10;99.90
22112;DHT22;11222;50.872;4.312;2023-05-14T13:28:00;21.00;99.90
22112;DHT22;11222;50.872;4.312;2023-05-14T13:30:26;21.10;99.90
22112;DHT22;11222;50.872;4.312;2023-05-14T13:32:51;21.10;99.90
22112;DHT22;11222;50.872;4.312;2023-05-14T13:35:17;21.00;99.90
22112;DHT22;11222;50.872;4.312;2023-05-14T13:37:43;21.10;99.90
22112;DHT22;11222;50.872;4.312;2023-05-14T13:40:09;21.20;99.90
22112;DHT22;11222;50.872;4.312;2023-05-14T13:42:35;21.30;99.90
22112;DHT22;11222;50.872;4.312;2023-05-14T13:45:02;21.30;99.90
22112;DHT22;11222;50.872;4.312;2023-05-14T13:47:28;21.30;99.90
22112;DHT22;11222;50.872;4.312;2023-05-14T13:49:54;21.30;99.90
22112;DHT22;11222;50.872;4.312;2023-05-14T13:52:21;21.10;99.90
22112;DHT22;11222;50.872;4.312;2023-05-14T13:54:47;21.20;99.90
22112;DHT22;11222;50.872;4.312;2023-05-14T13:57:13;21.40;99.90
22112;DHT22;11222;50.872;4.312;2023-05-14T13:59:40;21.50;99.90
22112;DHT22;11222;50.872;4.312;2023-05-14T14:02:06;21.50;99.90
22112;DHT22;11222;50.872;4.312;2023-05-14T14:04:32;21.50;99.90
22112;DHT22;11222;50.872;4.312;2023-05-14T14:06:58;21.60;99.90
22112;DHT22;11222;50.872;4.312;2023-05-14T14:09:23;21.70;99.90
22112;DHT22;11222;50.872;4.312;2023-05-14T14:11:49;21.90;99.90
22112;DHT22;11222;50.872;4.312;2023-05-14T14:14:15;21.80;99.90
22112;DHT22;11222;50.872;4.312;2023-05-14T14:16:41;21.80;99.90
22112;DHT22;11222;50.872;4.312;2023-05-14T14:19:07;21.60;99.90
22112;DHT22;11222;50.872;4.312;2023-05-14T14:21:33;21.80;99.90
22112;DHT22;11222;50.872;4.312;2023-05-14T14:24:00;21.70;99.90
22112;DHT22;11222;50.872;4.312;2023-05-14T14:26:26;21.80;99.90
22112;DHT22;11222;50.872;4.312;2023-05-14T14:28:55;21.80;99.90
22112;DHT22;11222;50.872;4.312;2023-05-14T14:31:21;21.90;99.90
22112;DHT22;11222;50.872;4.312;2023-05-14T14:33:46;22.10;99.90
22112;DHT22;11222;50.872;4.312;2023-05-14T14:36:12;22.20;99.90
22112;DHT22;11222;50.872;4.312;2023-05-14T14:38:38;22.20;99.90
22112;DHT22;11222;50.872;4.312;2023-05-14T14:41:04;21.90;99.90
22112;DHT22;11222;50.872;4.312;2023-05-14T14:43:33;21.80;99.90
22112;DHT22;11222;50.872;4.312;2023-05-14T14:45:59;21.80;99.90
22112;DHT22;11222;50.872;4.312;2023-05-14T14:48:29;21.80;99.90
22112;DHT22;11222;50.872;4.312;2023-05-14T14:50:56;21.80;99.90
22112;DHT22;11222;50.872;4.312;2023-05-14T14:53:23;21.70;99.90
22112;DHT22;11222;50.872;4.312;2023-05-14T14:55:49;21.70;99.90
22112;DHT22;11222;50.872;4.312;2023-05-14T14:58:16;21.70;99.90
22112;DHT22;11222;50.872;4.312;2023-05-14T15:00:42;21.80;99.90
22112;DHT22;11222;50.872;4.312;2023-05-14T15:03:08;22.00;99.90
22112;DHT22;11222;50.872;4.312;2023-05-14T15:05:34;21.60;99.90
22112;DHT22;11222;50.872;4.312;2023-05-14T15:08:00;21.70;99.90
22112;DHT22;11222;50.872;4.312;2023-05-14T15:10:27;21.70;99.90
22112;DHT22;11222;50.872;4.312;2023-05-14T15:12:56;21.60;99.90
22112;DHT22;11222;50.872;4.312;2023-05-14T15:15:22;21.20;99.90
22112;DHT22;11222;50.872;4.312;2023-05-14T15:17:48;21.10;99.90
22112;DHT22;11222;50.872;4.312;2023-05-14T15:20:13;21.10;99.90
22112;DHT22;11222;50.872;4.312;2023-05-14T15:22:39;21.00;99.90
22112;DHT22;11222;50.872;4.312;2023-05-14T15:25:05;20.80;99.90
22112;DHT22;11222;50.872;4.312;2023-05-14T15:27:31;20.70;99.90
22112;DHT22;11222;50.872;4.312;2023-05-14T15:29:56;20.60;99.90
22112;DHT22;11222;50.872;4.312;2023-05-14T15:32:23;20.60;99.90
22112;DHT22;11222;50.872;4.312;2023-05-14T15:34:51;20.40;99.90
22112;DHT22;11222;50.872;4.312;2023-05-14T15:37:17;20.10;99.90